ADDS METAR Data INFO
IDs: Format: Raw Decoded Include TAF

Data at: 1242 UTC 19 Oct 2017

KPWM 191151Z 25003KT 10SM FEW250 07/05 A3019 RMK AO2 SLP223 T00720050 10072 20039 57007
KPWM 191051Z 00000KT 10SM FEW200 04/03 A3019 RMK AO2 SLP225 T00440033
KPWM 190951Z 00000KT 10SM CLR 05/04 A3020 RMK AO2 SLP228 T00500039
KPWM 190851Z 00000KT 10SM CLR 06/04 A3021 RMK AO2 SLP230 T00560039 55006
KPWM 190751Z AUTO 30003KT 10SM CLR 05/03 A3021 RMK AO2 SLP229 T00500033
KPWM 190651Z AUTO 00000KT 10SM CLR 05/04 A3022 RMK AO2 SLP232 T00500039
KPWM 190551Z AUTO 00000KT 10SM CLR 07/05 A3023 RMK AO2 SLP235 T00670050 10128 20061 58007
KPWM 190451Z AUTO 24005KT 10SM CLR 09/07 A3024 RMK AO2 SLP238 T00940067 402170044
KPWM 190351Z 00000KT 10SM CLR 07/06 A3025 RMK AO2 SLP242 LAST T00720056
KPWM 190251Z 00000KT 10SM CLR 09/07 A3025 RMK AO2 SLP242 T00940072 50005
KPWM 190151Z 24003KT 10SM CLR 11/07 A3025 RMK AO2 SLP243 T01110072
KPWM 190051Z 00000KT 10SM CLR 12/08 A3024 RMK AO2 SLP240 T01170083
KPWM 182351Z 00000KT 10SM CLR 11/08 A3023 RMK AO2 SLP237 T01110078 10217 20111 51015
KPWM 182251Z 20004KT 10SM SCT200 14/09 A3023 RMK AO2 SLP235 T01390089
KPWM 182151Z 10003KT 10SM SCT200 16/09 A3020 RMK AO2 SLP228 T01610089
KPWM 182051Z 17005KT 10SM SCT200 18/08 A3019 RMK AO2 SLP223 T01780078 53002
KPWM 181951Z VRB06KT 10SM FEW200 21/04 A3018 RMK AO2 SLP221 T02110044
KPWM 181851Z 30006KT 10SM FEW250 21/05 A3018 RMK AO2 SLP220 T02110050
KPWM 181751Z 30007KT 10SM CLR 21/05 A3018 RMK AO2 SLP221 T02060050 10206 20056 58006
KPWM 181651Z 29008KT 10SM FEW250 20/06 A3020 RMK AO2 SLP225 T02000056
KPWM 181551Z 28009KT 10SM FEW200 18/06 A3021 RMK AO2 SLP230 T01830056
KPWM 181451Z 24004KT 10SM CLR 17/06 A3020 RMK AO2 SLP227 T01720056 50012
KPWM 181351Z 27009KT 10SM FEW250 14/04 A3021 RMK AO2 SLP229 T01390039
KPWM 181251Z 28007KT 10SM CLR 11/03 A3020 RMK AO2 SLP226 T01060033
KPWM 181151Z 28004KT 10SM FEW250 06/01 A3017 RMK AO2 SLP216 T00560011 10067 20044 53011
KPWM 181051Z 24006KT 10SM CLR 06/01 A3015 RMK AO2 SLP210 T00560006
KPWM 180951Z 23009KT 10SM CLR 06/00 A3014 RMK AO2 SLP207 T00610000
KPWM 180851Z 22008KT 10SM CLR 06/01 A3014 RMK AO2 SLP205 T00560006 55004
KPWM 180751Z AUTO 22010KT 10SM FEW100 06/01 A3013 RMK AO2 SLP204 T00610006
KPWM 180651Z AUTO 20003KT 10SM FEW110 06/00 A3014 RMK AO2 SLP206 T00610000
KPWM 180551Z AUTO 20004KT 10SM CLR 07/00 A3015 RMK AO2 SLP209 T00670000 10094 20067 58008
KPWM 180451Z AUTO 21005KT 10SM CLR 07/00 A3016 RMK AO2 SLP214 T00670000 401330006
KPWM 180351Z 24008G16KT 10SM CLR 08/M01 A3017 RMK AO2 SLP218 LAST T00831006
KPWM 180251Z 22013G19KT 10SM CLR 09/M01 A3017 RMK AO2 SLP218 T00891006 58003
KPWM 180151Z 22005KT 10SM CLR 08/00 A3019 RMK AO2 SLP222 T00830000
KPWM 180051Z 21006G15KT 10SM CLR 09/01 A3018 RMK AO2 SLP220 T00890006